This is the latest recevied weather packets stored in our database for station/object 9W2SHB-13. If no packets are shown the sender has not sent any weather packets the latest 10 day(s).
| Time | Temp. | Humidity | Pressure | Rain* | Wind** | Luminosity | Snow |
|---|---|---|---|---|---|---|---|
| 1777802407 | 31.67° C | 61% | 1025.6 hPa | - | - | - | - |
| 1777801507 | 32.22° C | 59% | 1025.7 hPa | - | - | - | - |
| 1777800607 | 31.11° C | 62% | 1025.7 hPa | - | - | - | - |
| 1777799707 | 32.78° C | 58% | 1025.3 hPa | - | - | - | - |
| 1777798806 | 32.78° C | 58% | 1024.9 hPa | - | - | - | - |
| 1777797907 | 32.78° C | 58% | 1024.7 hPa | - | - | - | - |
| 1777797007 | 32.78° C | 59% | 1024.7 hPa | - | - | - | - |
| 1777796106 | 32.78° C | 58% | 1024.7 hPa | - | - | - | - |
| 1777795207 | 32.78° C | 58% | 1024.7 hPa | - | - | - | - |
| 1777794306 | 32.78° C | 58% | 1024.8 hPa | - | - | - | - |
| 1777793407 | 32.78° C | 59% | 1025.1 hPa | - | - | - | - |
| 1777792507 | 32.78° C | 59% | 1025.5 hPa | - | - | - | - |
| 1777791607 | 32.78° C | 58% | 1026 hPa | - | - | - | - |
| 1777790707 | 32.78° C | 58% | 1026.2 hPa | - | - | - | - |
| 1777789807 | 32.78° C | 57% | 1026.6 hPa | - | - | - | - |
| 1777788906 | 32.78° C | 57% | 1026.8 hPa | - | - | - | - |
| 1777788007 | 32.22° C | 57% | 1027 hPa | - | - | - | - |
| 1777787106 | 32.22° C | 59% | 1027.3 hPa | - | - | - | - |
| 1777786207 | 31.67° C | 59% | 1027.7 hPa | - | - | - | - |
| 1777785307 | 31.67° C | 61% | 1028.1 hPa | - | - | - | - |
| 1777784406 | 31.67° C | 61% | 1028.6 hPa | - | - | - | - |
| 1777783507 | 31.67° C | 61% | 1028.9 hPa | - | - | - | - |
| 1777782606 | 31.11° C | 62% | 1029.3 hPa | - | - | - | - |
| 1777781707 | 31.11° C | 62% | 1029.4 hPa | - | - | - | - |
| 1777780807 | 31.11° C | 63% | 1029.6 hPa | - | - | - | - |
* Rain since midnight (hover to see other rain measurements)
** Current wind speed in m/s (hover to see current wind gust speed)